Wycombe, Pennsylvania
Current Conditions -  °F | °C
As of 8:54 AM on Saturday 25 Oct 2014 (Local Time) from KDYL Reporting Station
Clear Clear  
Wind Chill: 47°   Ceiling: Unl
Heat Index: 47°   Visibility: 10mi
Dew Point: 36°   Wind: 3mph
Humidity: 66%   Direction: 200°SSW
Pressure: 29.89"   Gusts: NA
Location:  40.28°N, 75.02°W
Report Text: KDYL 251254Z AUTO 20003KT 10SM CLR 08/02 A2989 RMK AO2 SLP123 T00830022 $
Loading
Personal Weather Stations






























Interactive Weather Map
Tropical Storm Tracking
New forecast layout! Learn more

10-Day Weather Forecast

Advertisements
Track Severe Weather on mobile